sensor_id;sensor_type;location;lat;lon;timestamp;pressure;altitude;pressure_sealevel;temperature;humidity
41712;BME280;27399;51.516;13.670;2023-12-20T00:00:07;100010.06;;;7.91;97.51
41712;BME280;27399;51.516;13.670;2023-12-20T00:02:33;100003.75;;;8.08;96.54
41712;BME280;27399;51.516;13.670;2023-12-20T00:04:58;100005.69;;;7.73;98.14
41712;BME280;27399;51.516;13.670;2023-12-20T00:07:24;100004.81;;;7.64;97.68
41712;BME280;27399;51.516;13.670;2023-12-20T00:09:49;100003.06;;;7.66;98.24
41712;BME280;27399;51.516;13.670;2023-12-20T00:15:17;100003.97;;;7.52;98.17
41712;BME280;27399;51.516;13.670;2023-12-20T00:17:42;100003.94;;;7.60;98.18
41712;BME280;27399;51.516;13.670;2023-12-20T00:20:08;99999.47;;;7.73;98.11
41712;BME280;27399;51.516;13.670;2023-12-20T00:22:34;100003.03;;;7.70;98.35
41712;BME280;27399;51.516;13.670;2023-12-20T00:24:59;99995.13;;;7.49;98.23
41712;BME280;27399;51.516;13.670;2023-12-20T00:27:24;99998.66;;;7.58;98.71
41712;BME280;27399;51.516;13.670;2023-12-20T00:29:50;100003.00;;;7.81;97.51
41712;BME280;27399;51.516;13.670;2023-12-20T00:32:15;99999.53;;;7.60;97.35
41712;BME280;27399;51.516;13.670;2023-12-20T00:34:41;100002.16;;;7.78;97.36
41712;BME280;27399;51.516;13.670;2023-12-20T00:37:06;99994.16;;;7.82;98.33
41712;BME280;27399;51.516;13.670;2023-12-20T00:39:31;99988.78;;;7.95;96.91
41712;BME280;27399;51.516;13.670;2023-12-20T00:41:58;99995.91;;;7.83;97.00
41712;BME280;27399;51.516;13.670;2023-12-20T00:44:23;99995.97;;;7.68;97.28
41712;BME280;27399;51.516;13.670;2023-12-20T00:46:48;99991.53;;;7.71;97.09
41712;BME280;27399;51.516;13.670;2023-12-20T00:49:14;99987.16;;;7.59;98.18
41712;BME280;27399;51.516;13.670;2023-12-20T00:51:39;99982.63;;;7.85;97.15
41712;BME280;27399;51.516;13.670;2023-12-20T00:54:05;99973.75;;;7.89;96.62
41712;BME280;27399;51.516;13.670;2023-12-20T00:56:30;99975.56;;;7.84;96.75
41712;BME280;27399;51.516;13.670;2023-12-20T00:58:55;99976.34;;;8.01;96.66
41712;BME280;27399;51.516;13.670;2023-12-20T01:01:21;99978.19;;;7.85;96.60
41712;BME280;27399;51.516;13.670;2023-12-20T01:03:46;99972.84;;;7.95;96.21
41712;BME280;27399;51.516;13.670;2023-12-20T01:06:12;99964.16;;;7.60;96.93
41712;BME280;27399;51.516;13.670;2023-12-20T01:08:37;99968.44;;;7.89;96.71
41712;BME280;27399;51.516;13.670;2023-12-20T01:11:05;99965.03;;;7.60;97.32
41712;BME280;27399;51.516;13.670;2023-12-20T01:13:31;99966.75;;;7.75;97.56
41712;BME280;27399;51.516;13.670;2023-12-20T01:15:56;99963.22;;;7.70;96.91
41712;BME280;27399;51.516;13.670;2023-12-20T01:18:21;99965.88;;;7.72;96.67
41712;BME280;27399;51.516;13.670;2023-12-20T01:20:47;99968.63;;;7.50;97.25
41712;BME280;27399;51.516;13.670;2023-12-20T01:23:13;99961.41;;;7.88;96.76
41712;BME280;27399;51.516;13.670;2023-12-20T01:25:38;99957.91;;;7.67;96.79
41712;BME280;27399;51.516;13.670;2023-12-20T01:28:04;99956.94;;;7.88;96.55
41712;BME280;27399;51.516;13.670;2023-12-20T01:30:29;99956.28;;;7.31;98.94
41712;BME280;27399;51.516;13.670;2023-12-20T01:32:54;99957.94;;;7.58;97.98
41712;BME280;27399;51.516;13.670;2023-12-20T01:35:20;99960.59;;;7.63;97.50
41712;BME280;27399;51.516;13.670;2023-12-20T01:37:45;99958.88;;;7.54;97.17
41712;BME280;27399;51.516;13.670;2023-12-20T01:40:10;99948.25;;;7.51;98.33
41712;BME280;27399;51.516;13.670;2023-12-20T01:42:36;99951.78;;;7.54;97.90
41712;BME280;27399;51.516;13.670;2023-12-20T01:45:01;99956.13;;;7.77;97.67
41712;BME280;27399;51.516;13.670;2023-12-20T01:47:27;99943.72;;;7.76;97.03
41712;BME280;27399;51.516;13.670;2023-12-20T01:49:53;99942.88;;;7.68;97.28
41712;BME280;27399;51.516;13.670;2023-12-20T01:52:19;99944.69;;;7.59;97.55
41712;BME280;27399;51.516;13.670;2023-12-20T01:54:44;99941.06;;;7.82;97.08
41712;BME280;27399;51.516;13.670;2023-12-20T01:57:10;99936.69;;;7.66;97.26
41712;BME280;27399;51.516;13.670;2023-12-20T01:59:36;99930.44;;;7.84;96.68
41712;BME280;27399;51.516;13.670;2023-12-20T02:02:02;99933.94;;;7.87;96.15
41712;BME280;27399;51.516;13.670;2023-12-20T02:04:28;99929.72;;;7.46;97.52
41712;BME280;27399;51.516;13.670;2023-12-20T02:06:54;99930.41;;;7.85;96.57
41712;BME280;27399;51.516;13.670;2023-12-20T02:09:21;99918.97;;;7.75;96.21
41712;BME280;27399;51.516;13.670;2023-12-20T02:11:47;99923.34;;;7.86;96.74
41712;BME280;27399;51.516;13.670;2023-12-20T02:14:13;99918.00;;;7.87;96.30
41712;BME280;27399;51.516;13.670;2023-12-20T02:16:38;99921.56;;;7.89;96.31
41712;BME280;27399;51.516;13.670;2023-12-20T02:19:04;99920.56;;;8.06;95.86
41712;BME280;27399;51.516;13.670;2023-12-20T02:21:34;99922.41;;;7.90;96.15
41712;BME280;27399;51.516;13.670;2023-12-20T02:24:00;99917.13;;;7.91;96.40
41712;BME280;27399;51.516;13.670;2023-12-20T02:26:26;99915.38;;;7.83;96.34
41712;BME280;27399;51.516;13.670;2023-12-20T02:28:51;99929.50;;;7.93;96.12
41712;BME280;27399;51.516;13.670;2023-12-20T02:31:17;99922.53;;;7.71;96.50
41712;BME280;27399;51.516;13.670;2023-12-20T02:33:45;99926.03;;;7.75;96.14
41712;BME280;27399;51.516;13.670;2023-12-20T02:36:10;99919.78;;;7.88;96.14
41712;BME280;27399;51.516;13.670;2023-12-20T02:38:36;99915.44;;;7.70;96.74
41712;BME280;27399;51.516;13.670;2023-12-20T02:41:01;99921.56;;;7.83;95.92
41712;BME280;27399;51.516;13.670;2023-12-20T02:43:27;99920.72;;;7.81;96.19
41712;BME280;27399;51.516;13.670;2023-12-20T02:45:52;99911.88;;;7.82;96.63
41712;BME280;27399;51.516;13.670;2023-12-20T02:48:17;99910.94;;;7.86;96.18
41712;BME280;27399;51.516;13.670;2023-12-20T02:50:43;99907.44;;;7.80;96.63
41712;BME280;27399;51.516;13.670;2023-12-20T02:53:08;99910.94;;;7.86;96.08
41712;BME280;27399;51.516;13.670;2023-12-20T02:55:33;99915.41;;;7.80;95.97
41712;BME280;27399;51.516;13.670;2023-12-20T02:57:59;99909.38;;;7.48;96.40
41712;BME280;27399;51.516;13.670;2023-12-20T03:00:24;99902.19;;;7.66;96.44
41712;BME280;27399;51.516;13.670;2023-12-20T03:02:49;99904.84;;;7.69;96.54
41712;BME280;27399;51.516;13.670;2023-12-20T03:05:15;99906.72;;;7.43;96.83
41712;BME280;27399;51.516;13.670;2023-12-20T03:07:40;99903.97;;;7.64;96.47
41712;BME280;27399;51.516;13.670;2023-12-20T03:10:06;99906.72;;;7.43;96.52
41712;BME280;27399;51.516;13.670;2023-12-20T03:12:32;99900.44;;;7.66;97.15
41712;BME280;27399;51.516;13.670;2023-12-20T03:14:58;99903.97;;;7.70;96.50
41712;BME280;27399;51.516;13.670;2023-12-20T03:17:23;99912.78;;;7.70;96.86
41712;BME280;27399;51.516;13.670;2023-12-20T03:19:48;99904.91;;;7.52;97.28
41712;BME280;27399;51.516;13.670;2023-12-20T03:22:14;99909.28;;;7.67;96.78
41712;BME280;27399;51.516;13.670;2023-12-20T03:24:39;99903.13;;;7.57;97.17
41712;BME280;27399;51.516;13.670;2023-12-20T03:27:05;99890.69;;;7.67;96.57
41712;BME280;27399;51.516;13.670;2023-12-20T03:29:30;99893.44;;;7.48;97.12
41712;BME280;27399;51.516;13.670;2023-12-20T03:31:55;99899.53;;;7.67;96.33
41712;BME280;27399;51.516;13.670;2023-12-20T03:34:21;99899.53;;;7.66;96.71
41712;BME280;27399;51.516;13.670;2023-12-20T03:36:46;99889.81;;;7.68;96.16
41712;BME280;27399;51.516;13.670;2023-12-20T03:39:13;99892.41;;;7.77;95.97
41712;BME280;27399;51.516;13.670;2023-12-20T03:41:38;99885.44;;;7.60;96.79
41712;BME280;27399;51.516;13.670;2023-12-20T03:44:03;99888.09;;;7.60;97.31
41712;BME280;27399;51.516;13.670;2023-12-20T03:46:29;99887.19;;;7.63;96.64
41712;BME280;27399;51.516;13.670;2023-12-20T03:48:54;99885.50;;;7.45;97.04
41712;BME280;27399;51.516;13.670;2023-12-20T03:51:19;99887.09;;;7.79;95.97
41712;BME280;27399;51.516;13.670;2023-12-20T03:53:45;99886.16;;;7.86;95.81
41712;BME280;27399;51.516;13.670;2023-12-20T03:56:10;99891.53;;;7.75;95.64
41712;BME280;27399;51.516;13.670;2023-12-20T03:58:35;99886.31;;;7.59;96.16
41712;BME280;27399;51.516;13.670;2023-12-20T04:01:01;99889.75;;;7.77;95.93
41712;BME280;27399;51.516;13.670;2023-12-20T04:03:27;99885.34;;;7.74;95.91
41712;BME280;27399;51.516;13.670;2023-12-20T04:05:52;99883.69;;;7.49;96.96
41712;BME280;27399;51.516;13.670;2023-12-20T04:08:19;99887.28;;;7.37;97.28
41712;BME280;27399;51.516;13.670;2023-12-20T04:10:44;99897.94;;;7.35;97.55
41712;BME280;27399;51.516;13.670;2023-12-20T04:13:09;99898.78;;;7.39;97.57
41712;BME280;27399;51.516;13.670;2023-12-20T04:15:35;99896.88;;;7.67;97.03
41712;BME280;27399;51.516;13.670;2023-12-20T04:18:00;99890.78;;;7.48;97.08
41712;BME280;27399;51.516;13.670;2023-12-20T04:20:25;99884.53;;;7.60;97.04
41712;BME280;27399;51.516;13.670;2023-12-20T04:22:51;99884.63;;;7.44;97.28
41712;BME280;27399;51.516;13.670;2023-12-20T04:25:16;99886.31;;;7.53;96.99
41712;BME280;27399;51.516;13.670;2023-12-20T04:27:41;99888.91;;;7.69;96.64
41712;BME280;27399;51.516;13.670;2023-12-20T04:30:07;99889.78;;;7.69;96.95
41712;BME280;27399;51.516;13.670;2023-12-20T04:32:32;99888.13;;;7.53;97.74
41712;BME280;27399;51.516;13.670;2023-12-20T04:34:58;99896.88;;;7.69;96.76
41712;BME280;27399;51.516;13.670;2023-12-20T04:37:23;99886.31;;;7.59;96.95
41712;BME280;27399;51.516;13.670;2023-12-20T04:39:49;99896.03;;;7.59;97.41
41712;BME280;27399;51.516;13.670;2023-12-20T04:42:15;99894.22;;;7.69;96.90
41712;BME280;27399;51.516;13.670;2023-12-20T04:44:40;99887.16;;;7.71;96.62
41712;BME280;27399;51.516;13.670;2023-12-20T04:47:05;99887.97;;;7.82;96.14
41712;BME280;27399;51.516;13.670;2023-12-20T04:49:31;99888.09;;;7.60;96.83
41712;BME280;27399;51.516;13.670;2023-12-20T04:51:56;99894.19;;;7.78;96.86
41712;BME280;27399;51.516;13.670;2023-12-20T04:54:22;99910.09;;;7.78;95.90
41712;BME280;27399;51.516;13.670;2023-12-20T04:56:47;99907.50;;;7.69;97.18
41712;BME280;27399;51.516;13.670;2023-12-20T04:59:12;99907.53;;;7.61;97.49
41712;BME280;27399;51.516;13.670;2023-12-20T05:01:38;99914.66;;;7.45;98.33
41712;BME280;27399;51.516;13.670;2023-12-20T05:04:03;99905.81;;;7.49;98.00
41712;BME280;27399;51.516;13.670;2023-12-20T05:06:29;99917.31;;;7.42;98.04
41712;BME280;27399;51.516;13.670;2023-12-20T05:08:54;99918.25;;;7.35;99.00
41712;BME280;27399;51.516;13.670;2023-12-20T05:11:19;99902.19;;;7.69;97.37
41712;BME280;27399;51.516;13.670;2023-12-20T05:13:45;99897.78;;;7.63;97.72
41712;BME280;27399;51.516;13.670;2023-12-20T05:16:10;99898.69;;;7.59;97.76
41712;BME280;27399;51.516;13.670;2023-12-20T05:18:36;99899.47;;;7.80;97.25
41712;BME280;27399;51.516;13.670;2023-12-20T05:21:01;99902.25;;;7.53;96.80
41712;BME280;27399;51.516;13.670;2023-12-20T05:23:27;99908.41;;;7.57;96.06
41712;BME280;27399;51.516;13.670;2023-12-20T05:25:52;99907.50;;;7.72;95.43
41712;BME280;27399;51.516;13.670;2023-12-20T05:28:18;99895.16;;;7.62;94.69
41712;BME280;27399;51.516;13.670;2023-12-20T05:30:43;99901.38;;;7.47;94.18
41712;BME280;27399;51.516;13.670;2023-12-20T05:33:08;99891.69;;;7.42;93.90
41712;BME280;27399;51.516;13.670;2023-12-20T05:35:34;99896.94;;;7.56;93.76
41712;BME280;27399;51.516;13.670;2023-12-20T05:37:59;99902.25;;;7.52;92.93
41712;BME280;27399;51.516;13.670;2023-12-20T05:40:25;99919.00;;;7.68;93.06
41712;BME280;27399;51.516;13.670;2023-12-20T05:42:50;99924.44;;;7.31;93.86
41712;BME280;27399;51.516;13.670;2023-12-20T05:45:15;99922.63;;;7.45;93.50
41712;BME280;27399;51.516;13.670;2023-12-20T05:47:41;99932.31;;;7.52;93.66
41712;BME280;27399;51.516;13.670;2023-12-20T05:50:06;99929.63;;;7.66;93.02
41712;BME280;27399;51.516;13.670;2023-12-20T05:52:32;99930.59;;;7.42;94.36
41712;BME280;27399;51.516;13.670;2023-12-20T05:54:57;99928.75;;;7.58;94.26
41712;BME280;27399;51.516;13.670;2023-12-20T05:57:26;99930.56;;;7.54;94.35
41712;BME280;27399;51.516;13.670;2023-12-20T05:59:51;99936.69;;;7.66;94.11
41712;BME280;27399;51.516;13.670;2023-12-20T06:02:16;99941.19;;;7.51;95.43
41712;BME280;27399;51.516;13.670;2023-12-20T06:04:42;99951.78;;;7.50;95.43
41712;BME280;27399;51.516;13.670;2023-12-20T06:07:08;99949.13;;;7.60;95.64
41712;BME280;27399;51.516;13.670;2023-12-20T06:09:36;99942.94;;;7.58;95.62
41712;BME280;27399;51.516;13.670;2023-12-20T06:12:01;99937.69;;;7.37;96.07
41712;BME280;27399;51.516;13.670;2023-12-20T06:14:27;99943.84;;;7.45;96.11
41712;BME280;27399;51.516;13.670;2023-12-20T06:16:52;99943.00;;;7.41;96.18
41712;BME280;27399;51.516;13.670;2023-12-20T06:19:17;99946.50;;;7.45;96.25
41712;BME280;27399;51.516;13.670;2023-12-20T06:21:43;99947.34;;;7.56;95.46
41712;BME280;27399;51.516;13.670;2023-12-20T06:24:08;99940.34;;;7.34;96.40
41712;BME280;27399;51.516;13.670;2023-12-20T06:26:34;99950.00;;;7.53;95.53
41712;BME280;27399;51.516;13.670;2023-12-20T06:29:00;99942.16;;;7.25;96.96
41712;BME280;27399;51.516;13.670;2023-12-20T06:31:25;99942.16;;;7.18;97.22
41712;BME280;27399;51.516;13.670;2023-12-20T06:33:50;99943.03;;;7.26;96.72
41712;BME280;27399;51.516;13.670;2023-12-20T06:36:22;99946.53;;;7.36;96.53
41712;BME280;27399;51.516;13.670;2023-12-20T06:38:47;99946.59;;;7.12;96.92
41712;BME280;27399;51.516;13.670;2023-12-20T06:41:13;99947.44;;;7.27;96.25
41712;BME280;27399;51.516;13.670;2023-12-20T06:43:39;99937.75;;;7.12;96.49
41712;BME280;27399;51.516;13.670;2023-12-20T06:46:04;99953.66;;;7.15;96.70
41712;BME280;27399;51.516;13.670;2023-12-20T06:48:29;99952.78;;;7.18;96.40
41712;BME280;27399;51.516;13.670;2023-12-20T06:50:55;99959.88;;;7.12;96.37
41712;BME280;27399;51.516;13.670;2023-12-20T06:53:20;99957.19;;;7.20;95.97
41712;BME280;27399;51.516;13.670;2023-12-20T06:55:45;99962.50;;;7.19;95.74
41712;BME280;27399;51.516;13.670;2023-12-20T06:58:11;99957.16;;;7.33;95.39
41712;BME280;27399;51.516;13.670;2023-12-20T07:00:36;99958.94;;;7.27;95.78
41712;BME280;27399;51.516;13.670;2023-12-20T07:03:02;99952.78;;;7.14;95.99
41712;BME280;27399;51.516;13.670;2023-12-20T07:05:27;99956.31;;;7.04;96.28
41712;BME280;27399;51.516;13.670;2023-12-20T07:07:52;99961.63;;;7.07;96.52
41712;BME280;27399;51.516;13.670;2023-12-20T07:10:18;99966.03;;;7.14;96.09
41712;BME280;27399;51.516;13.670;2023-12-20T07:12:43;99966.91;;;7.12;96.13
41712;BME280;27399;51.516;13.670;2023-12-20T07:15:09;99966.06;;;6.94;96.65
41712;BME280;27399;51.516;13.670;2023-12-20T07:17:34;99959.00;;;6.89;96.87
41712;BME280;27399;51.516;13.670;2023-12-20T07:20:00;99965.19;;;6.91;96.56
41712;BME280;27399;51.516;13.670;2023-12-20T07:22:31;99969.63;;;6.96;96.62
41712;BME280;27399;51.516;13.670;2023-12-20T07:24:57;99966.09;;;6.80;96.79
41712;BME280;27399;51.516;13.670;2023-12-20T07:27:23;99966.06;;;7.02;96.03
41712;BME280;27399;51.516;13.670;2023-12-20T07:29:48;99966.94;;;6.98;95.67
41712;BME280;27399;51.516;13.670;2023-12-20T07:32:13;99973.13;;;6.98;95.82
41712;BME280;27399;51.516;13.670;2023-12-20T07:34:38;99961.66;;;7.06;95.45
41712;BME280;27399;51.516;13.670;2023-12-20T07:37:04;99973.13;;;7.05;95.11
41712;BME280;27399;51.516;13.670;2023-12-20T07:39:29;99971.38;;;6.94;94.75
41712;BME280;27399;51.516;13.670;2023-12-20T07:41:54;99963.44;;;6.76;95.91
41712;BME280;27399;51.516;13.670;2023-12-20T07:44:22;99964.31;;;6.93;95.60
41712;BME280;27399;51.516;13.670;2023-12-20T07:46:48;99968.72;;;6.96;95.87
41712;BME280;27399;51.516;13.670;2023-12-20T07:49:13;99967.81;;;7.06;95.35
41712;BME280;27399;51.516;13.670;2023-12-20T07:51:39;99975.78;;;7.02;95.90
41712;BME280;27399;51.516;13.670;2023-12-20T07:54:04;99964.28;;;7.15;94.98
41712;BME280;27399;51.516;13.670;2023-12-20T07:56:30;99964.28;;;7.06;96.11
41712;BME280;27399;51.516;13.670;2023-12-20T07:58:55;99959.84;;;7.26;95.08
41712;BME280;27399;51.516;13.670;2023-12-20T08:01:20;99962.47;;;7.33;94.83
41712;BME280;27399;51.516;13.670;2023-12-20T08:03:46;99955.38;;;7.36;94.84
41712;BME280;27399;51.516;13.670;2023-12-20T08:06:11;99958.91;;;7.31;95.00
41712;BME280;27399;51.516;13.670;2023-12-20T08:08:37;99964.19;;;7.54;95.12
41712;BME280;27399;51.516;13.670;2023-12-20T08:11:02;99967.69;;;7.60;94.75
41712;BME280;27399;51.516;13.670;2023-12-20T08:13:27;99986.31;;;7.37;95.15
41712;BME280;27399;51.516;13.670;2023-12-20T08:15:53;99978.31;;;7.60;95.04
41712;BME280;27399;51.516;13.670;2023-12-20T08:18:18;99987.16;;;7.53;95.26
41712;BME280;27399;51.516;13.670;2023-12-20T08:20:44;99966.88;;;7.40;95.29
41712;BME280;27399;51.516;13.670;2023-12-20T08:23:09;99966.94;;;7.10;96.59
41712;BME280;27399;51.516;13.670;2023-12-20T08:25:35;99973.91;;;7.53;95.44
41712;BME280;27399;51.516;13.670;2023-12-20T08:28:01;99960.75;;;7.04;97.22
41712;BME280;27399;51.516;13.670;2023-12-20T08:30:27;99962.47;;;7.23;96.27
41712;BME280;27399;51.516;13.670;2023-12-20T08:32:52;99963.44;;;6.85;98.37
41712;BME280;27399;51.516;13.670;2023-12-20T08:35:18;99962.47;;;7.23;96.86
41712;BME280;27399;51.516;13.670;2023-12-20T08:37:43;99953.63;;;7.35;95.92
41712;BME280;27399;51.516;13.670;2023-12-20T08:40:09;99951.00;;;7.21;96.85
41712;BME280;27399;51.516;13.670;2023-12-20T08:42:34;99957.19;;;7.23;96.37
41712;BME280;27399;51.516;13.670;2023-12-20T08:45:00;99959.84;;;7.06;96.08
41712;BME280;27399;51.516;13.670;2023-12-20T08:47:25;99951.03;;;7.01;97.39
41712;BME280;27399;51.516;13.670;2023-12-20T08:49:51;99944.84;;;7.07;97.07
41712;BME280;27399;51.516;13.670;2023-12-20T08:52:21;99959.88;;;7.03;96.85
41712;BME280;27399;51.516;13.670;2023-12-20T08:54:46;99949.25;;;7.02;96.99
41712;BME280;27399;51.516;13.670;2023-12-20T08:57:12;99954.53;;;7.26;96.10
41712;BME280;27399;51.516;13.670;2023-12-20T08:59:37;99945.66;;;7.26;95.33
41712;BME280;27399;51.516;13.670;2023-12-20T09:02:02;99942.94;;;7.55;94.57
41712;BME280;27399;51.516;13.670;2023-12-20T09:04:28;99936.84;;;7.28;94.20
41712;BME280;27399;51.516;13.670;2023-12-20T09:06:54;99940.44;;;6.96;93.35
41712;BME280;27399;51.516;13.670;2023-12-20T09:09:19;99952.72;;;7.39;93.31
41712;BME280;27399;51.516;13.670;2023-12-20T09:11:45;99950.97;;;7.34;93.25
41712;BME280;27399;51.516;13.670;2023-12-20T09:14:13;99960.59;;;7.66;92.54
41712;BME280;27399;51.516;13.670;2023-12-20T09:16:39;99958.00;;;7.44;92.13
41712;BME280;27399;51.516;13.670;2023-12-20T09:19:04;99956.09;;;7.88;89.76
41712;BME280;27399;51.516;13.670;2023-12-20T09:21:29;99950.75;;;7.93;89.97
41712;BME280;27399;51.516;13.670;2023-12-20T09:23:55;99945.41;;;7.94;89.86
41712;BME280;27399;51.516;13.670;2023-12-20T09:26:20;99933.03;;;7.90;88.90
41712;BME280;27399;51.516;13.670;2023-12-20T09:28:46;99932.97;;;8.05;88.63
41712;BME280;27399;51.516;13.670;2023-12-20T09:31:11;99932.16;;;7.91;88.92
41712;BME280;27399;51.516;13.670;2023-12-20T09:33:36;99937.50;;;7.83;89.18
41712;BME280;27399;51.516;13.670;2023-12-20T09:36:02;99928.50;;;8.12;87.88
41712;BME280;27399;51.516;13.670;2023-12-20T09:38:27;99926.66;;;8.24;87.86
41712;BME280;27399;51.516;13.670;2023-12-20T09:40:53;99918.75;;;8.10;87.32
41712;BME280;27399;51.516;13.670;2023-12-20T09:43:20;99923.25;;;7.97;87.39
41712;BME280;27399;51.516;13.670;2023-12-20T09:45:46;99922.31;;;8.13;88.21
41712;BME280;27399;51.516;13.670;2023-12-20T09:48:11;99923.31;;;7.94;87.23
41712;BME280;27399;51.516;13.670;2023-12-20T09:50:39;99912.72;;;7.83;87.09
41712;BME280;27399;51.516;13.670;2023-12-20T09:53:05;99912.72;;;7.84;87.01
41712;BME280;27399;51.516;13.670;2023-12-20T09:55:34;99911.69;;;8.10;86.82
41712;BME280;27399;51.516;13.670;2023-12-20T09:58:00;99915.13;;;8.26;86.49
41712;BME280;27399;51.516;13.670;2023-12-20T10:00:26;99910.88;;;8.02;87.28
41712;BME280;27399;51.516;13.670;2023-12-20T10:02:58;99909.88;;;8.14;85.86
41712;BME280;27399;51.516;13.670;2023-12-20T10:05:27;99900.25;;;8.02;86.14
41712;BME280;27399;51.516;13.670;2023-12-20T10:07:53;99900.88;;;8.36;84.75
41712;BME280;27399;51.516;13.670;2023-12-20T10:10:18;99891.06;;;8.46;84.78
41712;BME280;27399;51.516;13.670;2023-12-20T10:13:03;99890.88;;;8.70;83.63
41712;BME280;27399;51.516;13.670;2023-12-20T10:15:29;99894.63;;;10.04;81.37
41712;BME280;27399;51.516;13.670;2023-12-20T10:17:54;99882.09;;;10.66;78.75
41712;BME280;27399;51.516;13.670;2023-12-20T10:20:20;99886.38;;;10.75;77.25
41712;BME280;27399;51.516;13.670;2023-12-20T10:22:45;99891.78;;;11.20;76.53
41712;BME280;27399;51.516;13.670;2023-12-20T10:25:11;99890.97;;;12.40;72.55
41712;BME280;27399;51.516;13.670;2023-12-20T10:27:37;99882.53;;;11.79;72.85
41712;BME280;27399;51.516;13.670;2023-12-20T10:30:02;99886.91;;;10.44;75.55
41712;BME280;27399;51.516;13.670;2023-12-20T10:32:27;99884.38;;;10.33;76.47
41712;BME280;27399;51.516;13.670;2023-12-20T10:34:54;99880.91;;;9.68;78.34
41712;BME280;27399;51.516;13.670;2023-12-20T10:37:19;99874.66;;;9.71;79.47
41712;BME280;27399;51.516;13.670;2023-12-20T10:39:51;99869.34;;;9.69;79.28
41712;BME280;27399;51.516;13.670;2023-12-20T10:42:20;99884.44;;;9.69;79.14
41712;BME280;27399;51.516;13.670;2023-12-20T10:44:46;99881.75;;;9.70;78.65
41712;BME280;27399;51.516;13.670;2023-12-20T10:47:12;99871.84;;;9.10;81.29
41712;BME280;27399;51.516;13.670;2023-12-20T10:49:38;99868.13;;;9.25;79.96
41712;BME280;27399;51.516;13.670;2023-12-20T10:52:04;99865.72;;;9.75;79.08
41712;BME280;27399;51.516;13.670;2023-12-20T10:54:30;99861.56;;;9.55;77.78
41712;BME280;27399;51.516;13.670;2023-12-20T10:56:56;99848.69;;;9.20;77.66
41712;BME280;27399;51.516;13.670;2023-12-20T10:59:22;99859.84;;;10.14;77.79
41712;BME280;27399;51.516;13.670;2023-12-20T11:01:48;99847.41;;;11.99;71.19
41712;BME280;27399;51.516;13.670;2023-12-20T11:04:16;99846.16;;;12.14;69.92
41712;BME280;27399;51.516;13.670;2023-12-20T11:06:54;99851.78;;;12.02;70.49
41712;BME280;27399;51.516;13.670;2023-12-20T11:09:25;99842.69;;;10.82;73.97
41712;BME280;27399;51.516;13.670;2023-12-20T11:11:56;99836.25;;;10.92;73.74
41712;BME280;27399;51.516;13.670;2023-12-20T11:14:25;99848.38;;;10.63;75.13
41712;BME280;27399;51.516;13.670;2023-12-20T11:17:05;99840.69;;;9.87;75.61
41712;BME280;27399;51.516;13.670;2023-12-20T11:19:30;99839.16;;;10.28;74.75
41712;BME280;27399;51.516;13.670;2023-12-20T11:21:56;99833.28;;;11.53;72.85
41712;BME280;27399;51.516;13.670;2023-12-20T11:24:22;99814.38;;;12.73;67.87
41712;BME280;27399;51.516;13.670;2023-12-20T11:26:49;99823.50;;;13.28;67.87
41712;BME280;27399;51.516;13.670;2023-12-20T11:29:34;99822.28;;;12.43;68.39
41712;BME280;27399;51.516;13.670;2023-12-20T11:32:03;99815.38;;;11.14;71.09
41712;BME280;27399;51.516;13.670;2023-12-20T11:34:32;99822.50;;;11.15;72.22
41712;BME280;27399;51.516;13.670;2023-12-20T11:37:02;99816.38;;;10.63;72.89
41712;BME280;27399;51.516;13.670;2023-12-20T11:39:27;99804.50;;;10.28;74.06
41712;BME280;27399;51.516;13.670;2023-12-20T11:41:56;99802.38;;;9.96;75.76
41712;BME280;27399;51.516;13.670;2023-12-20T11:44:25;99816.22;;;10.18;74.68
41712;BME280;27399;51.516;13.670;2023-12-20T11:46:50;99820.81;;;9.49;75.16
41712;BME280;27399;51.516;13.670;2023-12-20T11:49:16;99812.84;;;9.47;76.23
41712;BME280;27399;51.516;13.670;2023-12-20T11:51:41;99813.25;;;9.16;77.10
41712;BME280;27399;51.516;13.670;2023-12-20T11:54:07;99804.19;;;9.33;76.96
41712;BME280;27399;51.516;13.670;2023-12-20T11:56:35;99803.16;;;9.43;77.36
41712;BME280;27399;51.516;13.670;2023-12-20T11:59:00;99804.09;;;9.39;77.64
41712;BME280;27399;51.516;13.670;2023-12-20T12:01:26;99797.06;;;9.35;77.32
41712;BME280;27399;51.516;13.670;2023-12-20T12:04:02;99801.34;;;9.43;78.38
41712;BME280;27399;51.516;13.670;2023-12-20T12:06:27;99780.84;;;8.81;78.38
41712;BME280;27399;51.516;13.670;2023-12-20T12:08:52;99788.19;;;8.62;78.72
41712;BME280;27399;51.516;13.670;2023-12-20T12:11:19;99786.28;;;8.72;78.89
41712;BME280;27399;51.516;13.670;2023-12-20T12:13:44;99782.03;;;8.54;78.41
41712;BME280;27399;51.516;13.670;2023-12-20T12:16:10;99774.69;;;8.78;78.36
41712;BME280;27399;51.516;13.670;2023-12-20T12:18:35;99775.72;;;8.66;79.51
41712;BME280;27399;51.516;13.670;2023-12-20T12:21:01;99765.28;;;8.49;79.04
41712;BME280;27399;51.516;13.670;2023-12-20T12:23:27;99768.44;;;8.83;79.16
41712;BME280;27399;51.516;13.670;2023-12-20T12:25:53;99760.69;;;8.62;78.98
41712;BME280;27399;51.516;13.670;2023-12-20T12:28:20;99752.69;;;8.65;78.11
41712;BME280;27399;51.516;13.670;2023-12-20T12:30:58;99760.50;;;8.82;78.51
41712;BME280;27399;51.516;13.670;2023-12-20T12:33:27;99762.19;;;8.88;78.73
41712;BME280;27399;51.516;13.670;2023-12-20T12:35:52;99749.03;;;8.75;78.53
41712;BME280;27399;51.516;13.670;2023-12-20T12:38:21;99745.66;;;8.58;78.95
41712;BME280;27399;51.516;13.670;2023-12-20T12:40:46;99748.53;;;8.37;78.58
41712;BME280;27399;51.516;13.670;2023-12-20T12:43:12;99736.88;;;8.56;78.35
41712;BME280;27399;51.516;13.670;2023-12-20T12:45:38;99750.19;;;8.51;78.04
41712;BME280;27399;51.516;13.670;2023-12-20T12:48:03;99734.84;;;8.76;78.79
41712;BME280;27399;51.516;13.670;2023-12-20T12:50:30;99737.63;;;8.65;79.08
41712;BME280;27399;51.516;13.670;2023-12-20T12:52:55;99727.19;;;8.50;78.10
41712;BME280;27399;51.516;13.670;2023-12-20T12:55:20;99719.16;;;8.55;77.71